createdAt,value
2019-06-26T00:02:41.621Z,30.23
2019-06-26T00:05:31.926Z,29.03
2019-06-26T00:08:20.426Z,32.27
2019-06-26T00:11:09.269Z,31.20
2019-06-26T00:13:58.370Z,30.83
2019-06-26T00:16:47.316Z,31.83
2019-06-26T00:19:36.576Z,31.80
2019-06-26T00:22:26.002Z,31.00
2019-06-26T00:25:14.697Z,34.17
2019-06-26T00:28:03.614Z,37.00
2019-06-26T00:30:52.392Z,37.30
2019-06-26T00:33:40.966Z,41.23
2019-06-26T00:36:30.794Z,47.30
2019-06-26T00:39:20.147Z,52.00
2019-06-26T00:42:08.879Z,59.70
2019-06-26T00:44:58.705Z,64.40
2019-06-26T00:47:47.130Z,57.83
2019-06-26T00:50:36.383Z,61.43
2019-06-26T00:53:25.769Z,60.90
2019-06-26T00:56:14.251Z,61.70
2019-06-26T00:59:03.057Z,62.87
2019-06-26T01:01:51.981Z,62.00
2019-06-26T01:04:43.694Z,53.83
2019-06-26T01:07:33.325Z,57.10
2019-06-26T01:10:23.909Z,56.77
2019-06-26T01:13:12.725Z,55.90
2019-06-26T01:16:01.472Z,53.03
2019-06-26T01:18:50.485Z,56.07
2019-06-26T01:21:38.729Z,56.33
2019-06-26T01:24:27.692Z,59.73
2019-06-26T01:27:16.520Z,60.13
2019-06-26T01:30:06.021Z,72.27
2019-06-26T01:32:54.566Z,67.33
2019-06-26T01:35:43.644Z,70.63
2019-06-26T01:38:32.846Z,86.20
2019-06-26T01:41:21.998Z,83.17
2019-06-26T01:44:15.257Z,76.73
2019-06-26T01:47:01.346Z,86.70
2019-06-26T01:49:50.731Z,87.93
2019-06-26T01:52:39.369Z,85.30
2019-06-26T01:55:28.056Z,87.40
2019-06-26T01:58:17.022Z,83.80
2019-06-26T02:01:06.023Z,83.67
2019-06-26T02:03:54.739Z,82.83
2019-06-26T02:06:43.763Z,83.20
2019-06-26T02:09:32.244Z,75.97
2019-06-26T02:12:21.389Z,75.13
2019-06-26T02:15:10.729Z,70.17
2019-06-26T02:18:00.006Z,71.63
2019-06-26T02:20:49.087Z,70.67
2019-06-26T02:23:38.674Z,68.87
2019-06-26T02:26:27.726Z,70.70
2019-06-26T02:29:17.218Z,68.53
2019-06-26T02:32:05.914Z,70.90
2019-06-26T02:34:54.857Z,76.40
2019-06-26T02:37:43.910Z,75.33
2019-06-26T02:40:33.013Z,73.40
2019-06-26T02:43:22.099Z,74.07
2019-06-26T02:46:11.031Z,62.20
2019-06-26T02:49:00.142Z,67.60
2019-06-26T02:51:49.147Z,62.67
2019-06-26T02:54:38.662Z,61.27
2019-06-26T02:57:27.681Z,68.90
2019-06-26T03:00:16.747Z,67.90
2019-06-26T03:03:06.004Z,57.60
2019-06-26T03:05:55.033Z,58.67
2019-06-26T03:08:45.282Z,57.70
2019-06-26T03:11:33.817Z,59.33
2019-06-26T03:14:23.075Z,54.53
2019-06-26T03:17:12.296Z,58.80
2019-06-26T03:20:01.571Z,60.50
2019-06-26T03:22:50.040Z,59.33
2019-06-26T03:25:39.511Z,61.20
2019-06-26T03:28:28.265Z,58.57
2019-06-26T03:31:17.067Z,63.03
2019-06-26T03:34:05.879Z,63.07
2019-06-26T03:36:54.580Z,60.13
2019-06-26T03:39:43.255Z,57.77
2019-06-26T03:42:32.318Z,63.43
2019-06-26T03:45:26.241Z,58.17
2019-06-26T03:48:12.034Z,61.63
2019-06-26T03:51:00.750Z,62.63
2019-06-26T03:53:49.641Z,63.70
2019-06-26T03:56:38.835Z,59.93
2019-06-26T03:59:28.350Z,60.53
2019-06-26T04:02:17.714Z,57.73
2019-06-26T04:05:06.714Z,61.07
2019-06-26T04:07:56.029Z,59.63
2019-06-26T04:10:44.552Z,64.20
2019-06-26T04:13:33.377Z,59.87
2019-06-26T04:16:22.725Z,59.63
2019-06-26T04:19:11.529Z,58.27
2019-06-26T04:22:00.346Z,59.33
2019-06-26T04:24:49.032Z,58.43
2019-06-26T04:27:38.312Z,63.83
2019-06-26T04:30:27.133Z,63.70
2019-06-26T04:33:15.849Z,62.90
2019-06-26T04:36:04.529Z,60.70
2019-06-26T04:38:53.195Z,60.53
2019-06-26T04:41:41.929Z,78.00
2019-06-26T04:44:30.957Z,90.40
2019-06-26T04:47:19.333Z,87.50
2019-06-26T04:49:55.875Z,92.97
2019-06-26T04:52:26.084Z,83.10
2019-06-26T04:54:56.289Z,92.13
2019-06-26T04:57:26.367Z,90.73
2019-06-26T04:59:56.622Z,92.83
2019-06-26T05:02:26.980Z,81.07
2019-06-26T05:04:57.089Z,81.70
2019-06-26T05:07:27.180Z,88.63
2019-06-26T05:09:57.402Z,87.73
2019-06-26T05:12:27.572Z,85.80
2019-06-26T05:14:57.704Z,83.37
2019-06-26T05:17:28.771Z,75.87
2019-06-26T05:19:58.687Z,77.23
2019-06-26T05:22:30.378Z,72.60
2019-06-26T05:25:00.611Z,85.73
2019-06-26T05:27:30.746Z,72.50
2019-06-26T05:30:21.138Z,77.73
2019-06-26T05:33:10.062Z,79.80
2019-06-26T05:35:59.191Z,79.50
2019-06-26T05:38:29.432Z,85.13
2019-06-26T05:40:59.486Z,95.10
2019-06-26T05:43:29.809Z,86.30
2019-06-26T05:45:59.751Z,85.67
2019-06-26T05:48:29.846Z,83.00
2019-06-26T05:50:59.777Z,85.73
2019-06-26T05:53:48.241Z,84.10
2019-06-26T05:56:36.862Z,72.60
2019-06-26T05:59:25.471Z,91.23
2019-06-26T06:02:14.504Z,86.70
2019-06-26T06:05:03.601Z,86.77
2019-06-26T06:07:33.692Z,85.83
2019-06-26T06:10:04.193Z,91.73
2019-06-26T06:12:34.331Z,88.60
2019-06-26T06:15:04.736Z,85.90
2019-06-26T06:17:54.080Z,87.60
2019-06-26T06:20:43.248Z,94.50
2019-06-26T06:23:32.413Z,109.93
2019-06-26T06:26:21.162Z,99.47
2019-06-26T06:29:10.552Z,97.90
2019-06-26T06:31:59.765Z,82.27
2019-06-26T06:34:49.086Z,92.57
2019-06-26T06:37:38.135Z,99.87
2019-06-26T06:40:27.352Z,107.87
2019-06-26T06:43:16.165Z,106.87
2019-06-26T06:46:05.625Z,102.93
2019-06-26T06:48:54.755Z,96.87
2019-06-26T06:51:43.572Z,101.20
2019-06-26T06:54:32.641Z,111.57
2019-06-26T06:57:21.767Z,106.30
2019-06-26T07:00:11.186Z,106.93
2019-06-26T07:03:00.395Z,111.67
2019-06-26T07:05:49.515Z,109.70
2019-06-26T07:08:38.874Z,103.80
2019-06-26T07:11:28.377Z,105.63
2019-06-26T07:14:17.537Z,94.40
2019-06-26T07:17:19.943Z,104.93
2019-06-26T07:19:57.628Z,110.03
2019-06-26T07:22:46.791Z,115.90
2019-06-26T07:25:36.716Z,105.13
2019-06-26T07:28:26.715Z,100.80
2019-06-26T07:31:15.581Z,100.60
2019-06-26T07:34:04.484Z,95.73
2019-06-26T07:36:53.743Z,87.43
2019-06-26T07:39:42.564Z,92.33
2019-06-26T07:42:32.311Z,101.80
2019-06-26T07:45:24.029Z,104.33
2019-06-26T07:48:11.786Z,86.33
2019-06-26T07:51:01.376Z,96.13
2019-06-26T07:53:50.475Z,104.43
2019-06-26T07:56:39.278Z,105.53
2019-06-26T07:59:28.705Z,91.37
2019-06-26T08:02:17.505Z,86.30
2019-06-26T08:05:06.904Z,92.87
2019-06-26T08:07:56.311Z,96.97
2019-06-26T08:10:45.382Z,74.37
2019-06-26T08:13:34.760Z,82.07
2019-06-26T08:16:24.242Z,89.63
2019-06-26T08:19:13.942Z,88.47
2019-06-26T08:22:03.770Z,86.10
2019-06-26T08:24:52.952Z,83.23
2019-06-26T08:27:42.096Z,92.47
2019-06-26T08:30:31.662Z,95.20
2019-06-26T08:33:20.695Z,81.50
2019-06-26T08:36:09.951Z,88.13
2019-06-26T08:38:58.655Z,91.03
2019-06-26T08:41:47.391Z,92.97
2019-06-26T08:44:17.349Z,83.90
2019-06-26T08:46:47.491Z,87.60
2019-06-26T08:49:25.329Z,77.73
2019-06-26T08:51:49.348Z,89.80
2019-06-26T08:54:19.447Z,92.87
2019-06-26T08:56:49.789Z,75.30
2019-06-26T08:59:19.764Z,82.63
2019-06-26T09:01:49.976Z,88.53
2019-06-26T09:04:19.968Z,82.50
2019-06-26T09:06:50.389Z,79.77
2019-06-26T09:09:20.674Z,78.40
2019-06-26T09:11:50.985Z,73.37
2019-06-26T09:14:21.437Z,72.70
2019-06-26T09:16:51.814Z,68.53
2019-06-26T09:19:21.943Z,75.80
2019-06-26T09:21:52.073Z,79.30
2019-06-26T09:24:22.102Z,75.17
2019-06-26T09:26:52.989Z,91.27
2019-06-26T09:29:24.147Z,87.33
2019-06-26T09:31:54.375Z,89.87
2019-06-26T09:34:24.393Z,73.90
2019-06-26T09:36:54.450Z,72.13
2019-06-26T09:39:24.633Z,75.60
2019-06-26T09:41:54.991Z,81.00
2019-06-26T09:44:25.234Z,85.20
2019-06-26T09:46:55.436Z,80.30
2019-06-26T09:49:25.595Z,73.10
2019-06-26T09:51:55.963Z,81.73
2019-06-26T09:54:26.906Z,63.20
2019-06-26T09:56:56.912Z,64.27
2019-06-26T09:59:26.907Z,60.53
2019-06-26T10:01:57.049Z,69.53
2019-06-26T10:04:27.690Z,78.67
2019-06-26T10:06:57.847Z,76.10
2019-06-26T10:09:27.958Z,67.50
2019-06-26T10:11:58.108Z,69.97
2019-06-26T10:14:46.166Z,59.70
2019-06-26T10:17:00.301Z,68.07
2019-06-26T10:19:30.578Z,69.03
2019-06-26T10:22:00.745Z,64.27
2019-06-26T10:24:31.090Z,74.97
2019-06-26T10:27:01.107Z,71.47
2019-06-26T10:29:31.316Z,70.60
2019-06-26T10:32:20.465Z,73.97
2019-06-26T10:35:09.512Z,68.83
2019-06-26T10:37:59.164Z,78.20
2019-06-26T10:40:48.272Z,77.40
2019-06-26T10:43:37.370Z,73.00
2019-06-26T10:46:26.658Z,73.10
2019-06-26T10:49:26.558Z,78.37
2019-06-26T10:52:06.434Z,71.33
2019-06-26T10:54:55.348Z,70.47
2019-06-26T10:57:44.938Z,82.30
2019-06-26T11:00:34.582Z,72.83
2019-06-26T11:03:23.287Z,76.00
2019-06-26T11:06:12.765Z,76.07
2019-06-26T11:09:01.839Z,83.83
2019-06-26T11:11:50.297Z,87.37
2019-06-26T11:14:39.205Z,91.73
2019-06-26T11:17:28.955Z,92.70
2019-06-26T11:20:18.784Z,74.20
2019-06-26T11:23:07.841Z,88.07
2019-06-26T11:25:57.091Z,77.63
2019-06-26T11:28:46.704Z,66.07
2019-06-26T11:31:35.867Z,77.30
2019-06-26T11:34:25.235Z,84.53
2019-06-26T11:37:14.324Z,77.33
2019-06-26T11:40:03.739Z,68.73
2019-06-26T11:42:52.966Z,69.30
2019-06-26T11:45:42.025Z,70.43
2019-06-26T11:48:31.275Z,74.07
2019-06-26T11:51:20.449Z,66.60
2019-06-26T11:54:09.921Z,73.10
2019-06-26T11:56:58.922Z,76.17
2019-06-26T11:59:47.729Z,73.97
2019-06-26T12:02:36.736Z,73.40
2019-06-26T12:05:25.729Z,69.63
2019-06-26T12:08:18.320Z,77.33
2019-06-26T12:11:05.818Z,71.53
2019-06-26T12:13:54.818Z,81.10
2019-06-26T12:16:44.679Z,72.03
2019-06-26T12:19:33.978Z,74.23
2019-06-26T12:22:22.914Z,67.80
2019-06-26T12:25:12.444Z,60.53
2019-06-26T12:28:01.559Z,63.60
2019-06-26T12:30:51.236Z,60.23
2019-06-26T12:33:40.988Z,57.70
2019-06-26T12:36:30.834Z,47.00
2019-06-26T12:39:20.222Z,52.50
2019-06-26T12:42:09.465Z,49.93
2019-06-26T12:44:59.342Z,42.85
2019-06-26T12:47:48.990Z,44.48
2019-06-26T12:50:38.283Z,42.77
2019-06-26T12:53:26.984Z,56.03
2019-06-26T12:56:16.850Z,47.00
2019-06-26T12:59:05.790Z,52.70
2019-06-26T13:01:55.125Z,40.33
2019-06-26T13:04:45.049Z,41.10
2019-06-26T13:07:34.990Z,41.05
2019-06-26T13:10:24.336Z,40.00
2019-06-26T13:13:14.287Z,38.75
2019-06-26T13:16:04.252Z,32.88
2019-06-26T13:18:53.361Z,39.83
2019-06-26T13:21:42.174Z,41.90
2019-06-26T13:24:30.930Z,36.20
2019-06-26T13:27:20.715Z,35.25
2019-06-26T13:30:10.111Z,37.27
2019-06-26T13:33:00.409Z,37.95
2019-06-26T13:35:50.152Z,40.95
2019-06-26T13:38:39.992Z,44.55
2019-06-26T13:41:30.041Z,38.15
2019-06-26T13:44:19.493Z,44.18
2019-06-26T13:47:09.181Z,36.23
2019-06-26T13:49:58.521Z,39.65
2019-06-26T13:52:48.499Z,34.20
2019-06-26T13:55:38.183Z,40.00
2019-06-26T13:58:27.603Z,31.07
2019-06-26T14:01:17.473Z,32.75
2019-06-26T14:04:08.774Z,30.70
2019-06-26T14:06:58.340Z,29.55
2019-06-26T14:09:48.169Z,28.17
2019-06-26T14:12:38.099Z,33.40
2019-06-26T14:15:28.159Z,27.30
2019-06-26T14:18:18.056Z,26.05
2019-06-26T14:21:07.335Z,26.30
2019-06-26T14:23:56.256Z,27.20
2019-06-26T14:26:46.063Z,26.57
2019-06-26T14:29:35.190Z,25.92
2019-06-26T14:32:25.560Z,25.35
2019-06-26T14:35:15.412Z,27.60
2019-06-26T14:38:05.418Z,25.90
2019-06-26T14:40:55.230Z,27.25
2019-06-26T14:43:45.340Z,22.60
2019-06-26T14:46:34.872Z,25.05
2019-06-26T14:49:24.224Z,28.40
2019-06-26T14:52:13.702Z,25.27
2019-06-26T14:55:03.803Z,24.57
2019-06-26T14:57:54.273Z,25.62
2019-06-26T15:00:44.341Z,23.57
2019-06-26T15:03:34.036Z,27.25
2019-06-26T15:06:24.550Z,23.62
2019-06-26T15:09:14.714Z,23.05
2019-06-26T15:12:04.533Z,21.70
2019-06-26T15:14:54.056Z,26.82
2019-06-26T15:17:43.708Z,25.32
2019-06-26T15:20:33.260Z,23.65
2019-06-26T15:23:23.434Z,19.95
2019-06-26T15:26:13.158Z,22.93
2019-06-26T15:29:03.318Z,20.75
2019-06-26T15:31:53.313Z,19.67
2019-06-26T15:34:43.167Z,21.02
2019-06-26T15:37:33.170Z,20.92
2019-06-26T15:40:22.702Z,20.55
2019-06-26T15:43:12.588Z,20.30
2019-06-26T15:46:02.497Z,17.67
2019-06-26T15:48:52.402Z,18.05
2019-06-26T15:51:42.707Z,18.42
2019-06-26T15:54:32.365Z,16.05
2019-06-26T15:57:22.025Z,18.37
2019-06-26T16:00:13.247Z,16.85
2019-06-26T16:03:01.919Z,18.83
2019-06-26T16:05:51.866Z,19.30
2019-06-26T16:08:41.405Z,15.35
2019-06-26T16:11:31.183Z,20.37
2019-06-26T16:14:21.225Z,16.05
2019-06-26T16:17:17.064Z,15.32
2019-06-26T16:20:07.335Z,16.27
2019-06-26T16:22:57.252Z,15.60
2019-06-26T16:25:47.337Z,15.38
2019-06-26T16:28:36.789Z,13.95
2019-06-26T16:31:26.788Z,14.30
2019-06-26T16:34:16.603Z,14.93
2019-06-26T16:37:06.208Z,14.90
2019-06-26T16:39:56.181Z,18.50
2019-06-26T16:42:45.496Z,17.80
2019-06-26T16:45:35.402Z,17.82
2019-06-26T16:48:25.262Z,17.85
2019-06-26T16:51:15.340Z,18.50
2019-06-26T16:54:05.421Z,17.00
2019-06-26T16:56:55.333Z,17.25
2019-06-26T16:59:44.730Z,17.12
2019-06-26T17:02:35.715Z,18.05
2019-06-26T17:05:25.351Z,17.77
2019-06-26T17:08:14.926Z,16.57
2019-06-26T17:11:05.143Z,15.05
2019-06-26T17:13:54.958Z,14.13
2019-06-26T17:16:44.601Z,14.00
2019-06-26T17:19:34.466Z,19.80
2019-06-26T17:22:23.872Z,15.95
2019-06-26T17:25:13.480Z,15.48
2019-06-26T17:28:03.315Z,16.35
2019-06-26T17:30:53.137Z,16.15
2019-06-26T17:33:43.078Z,14.40
2019-06-26T17:36:33.409Z,15.68
2019-06-26T17:39:23.290Z,15.48
2019-06-26T17:42:12.783Z,16.17
2019-06-26T17:45:02.717Z,16.48
2019-06-26T17:47:52.288Z,20.60
2019-06-26T17:50:41.950Z,16.82
2019-06-26T17:53:31.363Z,17.35
2019-06-26T17:56:20.686Z,16.80
2019-06-26T17:59:10.280Z,19.37
2019-06-26T18:02:00.248Z,18.95
2019-06-26T18:04:49.396Z,18.23
2019-06-26T18:07:38.714Z,17.60
2019-06-26T18:10:27.928Z,15.13
2019-06-26T18:13:16.958Z,17.10
2019-06-26T18:16:06.057Z,15.80
2019-06-26T18:18:54.974Z,16.80
2019-06-26T18:21:44.567Z,13.97
2019-06-26T18:24:34.046Z,13.80
2019-06-26T18:27:23.327Z,14.10
2019-06-26T18:29:53.820Z,15.33
2019-06-26T18:32:24.060Z,13.73
2019-06-26T18:34:54.439Z,18.23
2019-06-26T18:37:24.913Z,13.00
2019-06-26T18:39:55.230Z,16.43
2019-06-26T18:42:25.535Z,15.97
2019-06-26T18:44:55.957Z,13.73
2019-06-26T18:47:26.899Z,14.47
2019-06-26T18:49:57.298Z,14.40
2019-06-26T18:52:27.776Z,14.33
2019-06-26T18:55:17.116Z,13.87
2019-06-26T18:58:05.896Z,12.90
2019-06-26T19:00:57.506Z,14.43
2019-06-26T19:03:46.894Z,13.40
2019-06-26T19:06:36.297Z,14.57
2019-06-26T19:09:25.926Z,13.80
2019-06-26T19:12:14.796Z,11.93
2019-06-26T19:15:04.176Z,15.23
2019-06-26T19:17:53.109Z,15.80
2019-06-26T19:20:42.031Z,11.77
2019-06-26T19:23:31.258Z,12.63
2019-06-26T19:26:19.815Z,12.17
2019-06-26T19:28:50.267Z,15.40
2019-06-26T19:31:20.957Z,10.43
2019-06-26T19:33:51.225Z,17.37
2019-06-26T19:36:24.148Z,10.70
2019-06-26T19:38:53.427Z,15.43
2019-06-26T19:41:23.482Z,12.33
2019-06-26T19:43:53.683Z,11.30
2019-06-26T19:46:24.144Z,15.10
2019-06-26T19:48:57.510Z,10.30
2019-06-26T19:51:26.894Z,9.50
2019-06-26T19:53:56.829Z,8.60
2019-06-26T19:56:27.071Z,13.80
2019-06-26T19:58:57.189Z,9.07
2019-06-26T20:01:27.592Z,14.80
2019-06-26T20:03:58.153Z,9.10
2019-06-26T20:06:28.510Z,10.30
2019-06-26T20:08:58.573Z,11.43
2019-06-26T20:11:29.229Z,16.10
2019-06-26T20:13:59.515Z,10.47
2019-06-26T20:16:29.799Z,9.30
2019-06-26T20:19:00.213Z,11.20
2019-06-26T20:21:30.634Z,14.50
2019-06-26T20:24:00.932Z,11.43
2019-06-26T20:26:30.987Z,14.20
2019-06-26T20:29:01.375Z,11.27
2019-06-26T20:31:31.568Z,15.30
2019-06-26T20:34:21.215Z,12.37
2019-06-26T20:37:10.004Z,13.37
2019-06-26T20:39:59.111Z,9.70
2019-06-26T20:42:48.678Z,11.43
2019-06-26T20:45:37.833Z,12.23
2019-06-26T20:48:26.546Z,12.20
2019-06-26T20:51:16.315Z,13.03
2019-06-26T20:54:05.989Z,12.10
2019-06-26T20:56:55.356Z,11.30
2019-06-26T20:59:44.259Z,9.87
2019-06-26T21:02:33.244Z,10.63
2019-06-26T21:05:22.173Z,9.83
2019-06-26T21:08:11.858Z,10.80
2019-06-26T21:11:01.249Z,11.03
2019-06-26T21:13:50.503Z,12.20
2019-06-26T21:16:39.922Z,8.43
2019-06-26T21:19:28.726Z,13.40
2019-06-26T21:22:18.005Z,8.70
2019-06-26T21:25:17.578Z,10.43
2019-06-26T21:27:58.296Z,10.10
2019-06-26T21:30:47.615Z,8.57
2019-06-26T21:33:36.571Z,9.57
2019-06-26T21:36:25.404Z,12.13
2019-06-26T21:39:14.126Z,7.30
2019-06-26T21:42:02.905Z,7.93
2019-06-26T21:44:51.865Z,6.17
2019-06-26T21:47:40.827Z,16.03
2019-06-26T21:50:30.276Z,13.43
2019-06-26T21:53:19.827Z,7.17
2019-06-26T21:56:09.613Z,7.47
2019-06-26T21:58:58.966Z,8.10
2019-06-26T22:01:49.029Z,7.80
2019-06-26T22:04:37.771Z,9.83
2019-06-26T22:07:26.692Z,12.03
2019-06-26T22:10:16.427Z,10.33
2019-06-26T22:13:06.182Z,9.07
2019-06-26T22:15:55.470Z,11.60
2019-06-26T22:18:44.455Z,13.20
2019-06-26T22:21:33.230Z,9.47
2019-06-26T22:24:22.684Z,7.80
2019-06-26T22:27:11.971Z,6.53
2019-06-26T22:30:00.938Z,9.00
2019-06-26T22:32:50.573Z,10.80
2019-06-26T22:35:40.173Z,5.47
2019-06-26T22:38:29.234Z,13.13
2019-06-26T22:41:18.548Z,8.73
2019-06-26T22:44:07.404Z,8.80
2019-06-26T22:46:56.435Z,9.80
2019-06-26T22:49:45.936Z,8.20
2019-06-26T22:52:34.549Z,11.03
2019-06-26T22:55:23.739Z,8.47
2019-06-26T22:58:12.686Z,12.77
2019-06-26T23:01:02.471Z,6.00
2019-06-26T23:03:52.171Z,9.43
2019-06-26T23:06:41.233Z,8.47
2019-06-26T23:09:30.875Z,6.13
2019-06-26T23:12:20.199Z,12.60
2019-06-26T23:15:09.861Z,10.60
2019-06-26T23:17:59.065Z,6.60
2019-06-26T23:20:47.716Z,12.90
2019-06-26T23:23:37.167Z,9.53
2019-06-26T23:26:25.826Z,8.03
2019-06-26T23:29:15.124Z,6.60
2019-06-26T23:32:04.299Z,9.07
2019-06-26T23:34:53.874Z,7.63
2019-06-26T23:37:44.981Z,5.60
2019-06-26T23:40:34.379Z,10.20
2019-06-26T23:43:23.203Z,8.13
2019-06-26T23:46:12.156Z,7.10
2019-06-26T23:49:01.335Z,9.33
2019-06-26T23:51:50.376Z,14.33
2019-06-26T23:54:39.305Z,10.83
2019-06-26T23:57:28.393Z,13.97
